sensor_id;sensor_type;location;lat;lon;timestamp;P1;durP1;ratioP1;P2;durP2;ratioP2
82248;SDS011;71851;49.092;18.918;2023-07-31T00:02:20;3.13;;;2.05;;
82248;SDS011;71851;49.092;18.918;2023-07-31T00:05:20;2.97;;;2.40;;
82248;SDS011;71851;49.092;18.918;2023-07-31T00:08:21;5.20;;;2.40;;
82248;SDS011;71851;49.092;18.918;2023-07-31T00:11:22;3.15;;;2.42;;
82248;SDS011;71851;49.092;18.918;2023-07-31T00:14:22;2.58;;;2.00;;
82248;SDS011;71851;49.092;18.918;2023-07-31T00:17:23;4.57;;;2.10;;
82248;SDS011;71851;49.092;18.918;2023-07-31T00:20:23;2.67;;;2.47;;
82248;SDS011;71851;49.092;18.918;2023-07-31T00:23:23;2.22;;;2.03;;
82248;SDS011;71851;49.092;18.918;2023-07-31T00:26:24;4.65;;;2.17;;
82248;SDS011;71851;49.092;18.918;2023-07-31T00:29:24;3.85;;;2.30;;
82248;SDS011;71851;49.092;18.918;2023-07-31T00:32:25;3.75;;;2.28;;
82248;SDS011;71851;49.092;18.918;2023-07-31T00:35:25;2.70;;;2.47;;
82248;SDS011;71851;49.092;18.918;2023-07-31T00:38:26;2.90;;;2.55;;
82248;SDS011;71851;49.092;18.918;2023-07-31T00:41:26;4.88;;;2.42;;
82248;SDS011;71851;49.092;18.918;2023-07-31T00:44:27;4.40;;;2.30;;
82248;SDS011;71851;49.092;18.918;2023-07-31T00:47:27;4.40;;;2.67;;
82248;SDS011;71851;49.092;18.918;2023-07-31T00:50:28;4.65;;;3.10;;
82248;SDS011;71851;49.092;18.918;2023-07-31T00:53:29;5.57;;;2.47;;
82248;SDS011;71851;49.092;18.918;2023-07-31T00:56:30;3.70;;;2.70;;
82248;SDS011;71851;49.092;18.918;2023-07-31T00:59:30;2.88;;;2.25;;
82248;SDS011;71851;49.092;18.918;2023-07-31T01:02:31;4.50;;;2.67;;
82248;SDS011;71851;49.092;18.918;2023-07-31T01:08:48;3.83;;;2.40;;
82248;SDS011;71851;49.092;18.918;2023-07-31T01:12:01;2.55;;;2.20;;
82248;SDS011;71851;49.092;18.918;2023-07-31T01:15:07;2.83;;;2.15;;
82248;SDS011;71851;49.092;18.918;2023-07-31T01:18:11;3.60;;;2.13;;
82248;SDS011;71851;49.092;18.918;2023-07-31T01:21:18;3.08;;;2.10;;
82248;SDS011;71851;49.092;18.918;2023-07-31T01:24:41;4.07;;;2.67;;
82248;SDS011;71851;49.092;18.918;2023-07-31T01:28:05;3.50;;;2.60;;
82248;SDS011;71851;49.092;18.918;2023-07-31T01:31:13;4.03;;;2.80;;
82248;SDS011;71851;49.092;18.918;2023-07-31T01:34:18;3.42;;;2.17;;
82248;SDS011;71851;49.092;18.918;2023-07-31T01:37:20;4.78;;;2.90;;
82248;SDS011;71851;49.092;18.918;2023-07-31T01:40:21;3.67;;;2.75;;
82248;SDS011;71851;49.092;18.918;2023-07-31T01:43:21;4.47;;;2.72;;
82248;SDS011;71851;49.092;18.918;2023-07-31T01:46:22;5.40;;;3.38;;
82248;SDS011;71851;49.092;18.918;2023-07-31T01:49:23;4.75;;;2.95;;
82248;SDS011;71851;49.092;18.918;2023-07-31T01:52:23;3.50;;;2.88;;
82248;SDS011;71851;49.092;18.918;2023-07-31T01:55:24;4.22;;;3.08;;
82248;SDS011;71851;49.092;18.918;2023-07-31T01:58:25;3.47;;;2.97;;
82248;SDS011;71851;49.092;18.918;2023-07-31T02:01:25;6.40;;;2.70;;
82248;SDS011;71851;49.092;18.918;2023-07-31T02:04:25;5.63;;;2.70;;
82248;SDS011;71851;49.092;18.918;2023-07-31T02:07:26;4.95;;;3.05;;
82248;SDS011;71851;49.092;18.918;2023-07-31T02:10:27;4.25;;;2.90;;
82248;SDS011;71851;49.092;18.918;2023-07-31T02:13:27;3.88;;;3.30;;
82248;SDS011;71851;49.092;18.918;2023-07-31T02:16:28;3.22;;;2.92;;
82248;SDS011;71851;49.092;18.918;2023-07-31T02:19:28;4.93;;;3.75;;
82248;SDS011;71851;49.092;18.918;2023-07-31T02:22:28;3.55;;;3.05;;
82248;SDS011;71851;49.092;18.918;2023-07-31T02:25:30;4.70;;;3.30;;
82248;SDS011;71851;49.092;18.918;2023-07-31T02:28:30;4.18;;;3.05;;
82248;SDS011;71851;49.092;18.918;2023-07-31T02:31:31;6.25;;;3.70;;
82248;SDS011;71851;49.092;18.918;2023-07-31T02:34:31;6.32;;;3.58;;
82248;SDS011;71851;49.092;18.918;2023-07-31T02:37:33;5.45;;;3.78;;
82248;SDS011;71851;49.092;18.918;2023-07-31T02:40:34;6.55;;;3.60;;
82248;SDS011;71851;49.092;18.918;2023-07-31T02:43:34;6.10;;;3.03;;
82248;SDS011;71851;49.092;18.918;2023-07-31T02:46:35;6.20;;;3.35;;
82248;SDS011;71851;49.092;18.918;2023-07-31T02:49:35;4.65;;;3.45;;
82248;SDS011;71851;49.092;18.918;2023-07-31T02:52:36;5.15;;;3.50;;
82248;SDS011;71851;49.092;18.918;2023-07-31T02:55:37;4.82;;;3.08;;
82248;SDS011;71851;49.092;18.918;2023-07-31T02:58:38;4.90;;;3.58;;
82248;SDS011;71851;49.092;18.918;2023-07-31T03:01:39;4.40;;;2.85;;
82248;SDS011;71851;49.092;18.918;2023-07-31T03:04:39;6.50;;;3.25;;
82248;SDS011;71851;49.092;18.918;2023-07-31T03:07:40;5.80;;;2.78;;
82248;SDS011;71851;49.092;18.918;2023-07-31T03:10:40;5.05;;;2.65;;
82248;SDS011;71851;49.092;18.918;2023-07-31T03:13:41;4.15;;;2.78;;
82248;SDS011;71851;49.092;18.918;2023-07-31T03:16:41;4.20;;;2.60;;
82248;SDS011;71851;49.092;18.918;2023-07-31T03:19:42;6.75;;;3.17;;
82248;SDS011;71851;49.092;18.918;2023-07-31T03:22:42;4.97;;;3.25;;
82248;SDS011;71851;49.092;18.918;2023-07-31T03:25:55;4.63;;;3.75;;
82248;SDS011;71851;49.092;18.918;2023-07-31T03:28:56;7.10;;;2.88;;
82248;SDS011;71851;49.092;18.918;2023-07-31T03:31:57;3.97;;;3.00;;
82248;SDS011;71851;49.092;18.918;2023-07-31T03:34:57;5.22;;;2.90;;
82248;SDS011;71851;49.092;18.918;2023-07-31T03:37:59;4.15;;;2.17;;
82248;SDS011;71851;49.092;18.918;2023-07-31T03:40:59;3.90;;;2.92;;
82248;SDS011;71851;49.092;18.918;2023-07-31T03:44:00;5.88;;;3.10;;
82248;SDS011;71851;49.092;18.918;2023-07-31T03:47:00;7.63;;;3.00;;
82248;SDS011;71851;49.092;18.918;2023-07-31T03:50:01;3.95;;;2.80;;
82248;SDS011;71851;49.092;18.918;2023-07-31T03:53:01;4.40;;;2.90;;
82248;SDS011;71851;49.092;18.918;2023-07-31T03:56:02;3.85;;;3.15;;
82248;SDS011;71851;49.092;18.918;2023-07-31T03:59:02;5.90;;;3.20;;
82248;SDS011;71851;49.092;18.918;2023-07-31T04:02:03;3.75;;;2.85;;
82248;SDS011;71851;49.092;18.918;2023-07-31T04:05:04;8.27;;;2.88;;
82248;SDS011;71851;49.092;18.918;2023-07-31T04:08:04;5.43;;;2.85;;
82248;SDS011;71851;49.092;18.918;2023-07-31T04:11:05;3.58;;;2.80;;
82248;SDS011;71851;49.092;18.918;2023-07-31T04:14:05;3.38;;;2.58;;
82248;SDS011;71851;49.092;18.918;2023-07-31T04:17:05;3.08;;;2.42;;
82248;SDS011;71851;49.092;18.918;2023-07-31T04:20:06;4.32;;;2.55;;
82248;SDS011;71851;49.092;18.918;2023-07-31T04:23:07;6.10;;;3.33;;
82248;SDS011;71851;49.092;18.918;2023-07-31T04:26:07;5.55;;;3.42;;
82248;SDS011;71851;49.092;18.918;2023-07-31T04:29:08;5.00;;;3.78;;
82248;SDS011;71851;49.092;18.918;2023-07-31T04:32:08;5.85;;;3.50;;
82248;SDS011;71851;49.092;18.918;2023-07-31T04:35:09;3.95;;;3.47;;
82248;SDS011;71851;49.092;18.918;2023-07-31T04:38:09;4.75;;;3.53;;
82248;SDS011;71851;49.092;18.918;2023-07-31T04:41:09;6.75;;;4.05;;
82248;SDS011;71851;49.092;18.918;2023-07-31T04:44:10;6.70;;;3.75;;
82248;SDS011;71851;49.092;18.918;2023-07-31T04:47:11;6.22;;;4.07;;
82248;SDS011;71851;49.092;18.918;2023-07-31T04:50:11;8.23;;;3.65;;
82248;SDS011;71851;49.092;18.918;2023-07-31T04:53:12;4.28;;;3.15;;
82248;SDS011;71851;49.092;18.918;2023-07-31T04:56:12;4.88;;;3.58;;
82248;SDS011;71851;49.092;18.918;2023-07-31T04:59:14;5.43;;;2.90;;
82248;SDS011;71851;49.092;18.918;2023-07-31T05:02:14;5.13;;;3.33;;
82248;SDS011;71851;49.092;18.918;2023-07-31T05:05:15;5.40;;;3.55;;
82248;SDS011;71851;49.092;18.918;2023-07-31T05:08:15;4.60;;;2.92;;
82248;SDS011;71851;49.092;18.918;2023-07-31T05:11:17;6.05;;;3.88;;
82248;SDS011;71851;49.092;18.918;2023-07-31T05:14:18;6.25;;;3.55;;
82248;SDS011;71851;49.092;18.918;2023-07-31T05:17:18;5.25;;;3.75;;
82248;SDS011;71851;49.092;18.918;2023-07-31T05:20:18;14.15;;;9.43;;
82248;SDS011;71851;49.092;18.918;2023-07-31T05:23:19;3.75;;;2.92;;
82248;SDS011;71851;49.092;18.918;2023-07-31T05:26:19;3.40;;;2.90;;
82248;SDS011;71851;49.092;18.918;2023-07-31T05:29:20;5.00;;;3.40;;
82248;SDS011;71851;49.092;18.918;2023-07-31T05:32:20;7.38;;;3.10;;
82248;SDS011;71851;49.092;18.918;2023-07-31T05:35:21;4.47;;;2.10;;
82248;SDS011;71851;49.092;18.918;2023-07-31T05:38:21;3.60;;;2.45;;
82248;SDS011;71851;49.092;18.918;2023-07-31T05:41:21;2.75;;;2.28;;
82248;SDS011;71851;49.092;18.918;2023-07-31T05:44:22;4.63;;;2.33;;
82248;SDS011;71851;49.092;18.918;2023-07-31T05:47:22;3.28;;;2.67;;
82248;SDS011;71851;49.092;18.918;2023-07-31T05:50:23;4.82;;;2.53;;
82248;SDS011;71851;49.092;18.918;2023-07-31T05:53:23;5.88;;;2.42;;
82248;SDS011;71851;49.092;18.918;2023-07-31T05:56:24;5.47;;;3.00;;
82248;SDS011;71851;49.092;18.918;2023-07-31T05:59:24;3.47;;;2.85;;
82248;SDS011;71851;49.092;18.918;2023-07-31T06:02:24;3.35;;;3.05;;
82248;SDS011;71851;49.092;18.918;2023-07-31T06:05:25;3.88;;;2.97;;
82248;SDS011;71851;49.092;18.918;2023-07-31T06:08:26;4.18;;;2.97;;
82248;SDS011;71851;49.092;18.918;2023-07-31T06:11:26;2.83;;;2.63;;
82248;SDS011;71851;49.092;18.918;2023-07-31T06:14:27;4.57;;;2.42;;
82248;SDS011;71851;49.092;18.918;2023-07-31T06:17:27;5.90;;;3.30;;
82248;SDS011;71851;49.092;18.918;2023-07-31T06:20:29;4.13;;;2.78;;
82248;SDS011;71851;49.092;18.918;2023-07-31T06:23:29;2.88;;;2.58;;
82248;SDS011;71851;49.092;18.918;2023-07-31T06:26:30;3.33;;;2.22;;
82248;SDS011;71851;49.092;18.918;2023-07-31T06:29:30;2.85;;;2.55;;
82248;SDS011;71851;49.092;18.918;2023-07-31T06:32:30;2.50;;;2.25;;
82248;SDS011;71851;49.092;18.918;2023-07-31T06:35:31;3.17;;;2.72;;
82248;SDS011;71851;49.092;18.918;2023-07-31T06:38:31;3.58;;;2.53;;
82248;SDS011;71851;49.092;18.918;2023-07-31T06:41:32;4.65;;;2.70;;
82248;SDS011;71851;49.092;18.918;2023-07-31T06:44:36;3.15;;;2.38;;
82248;SDS011;71851;49.092;18.918;2023-07-31T06:47:36;5.07;;;2.67;;
82248;SDS011;71851;49.092;18.918;2023-07-31T06:50:37;4.50;;;2.90;;
82248;SDS011;71851;49.092;18.918;2023-07-31T06:53:37;2.42;;;2.22;;
82248;SDS011;71851;49.092;18.918;2023-07-31T06:56:37;3.10;;;2.58;;
82248;SDS011;71851;49.092;18.918;2023-07-31T06:59:38;3.92;;;2.13;;
82248;SDS011;71851;49.092;18.918;2023-07-31T07:02:38;3.97;;;2.47;;
82248;SDS011;71851;49.092;18.918;2023-07-31T07:05:39;3.10;;;2.80;;
82248;SDS011;71851;49.092;18.918;2023-07-31T07:08:40;2.95;;;2.72;;
82248;SDS011;71851;49.092;18.918;2023-07-31T07:11:40;6.45;;;2.63;;
82248;SDS011;71851;49.092;18.918;2023-07-31T07:14:41;4.13;;;3.45;;
82248;SDS011;71851;49.092;18.918;2023-07-31T07:17:41;3.78;;;2.38;;
82248;SDS011;71851;49.092;18.918;2023-07-31T07:20:49;4.32;;;3.22;;
82248;SDS011;71851;49.092;18.918;2023-07-31T07:23:50;5.20;;;2.45;;
82248;SDS011;71851;49.092;18.918;2023-07-31T07:26:51;3.13;;;2.80;;
82248;SDS011;71851;49.092;18.918;2023-07-31T07:29:51;4.18;;;2.83;;
82248;SDS011;71851;49.092;18.918;2023-07-31T07:32:55;4.38;;;3.08;;
82248;SDS011;71851;49.092;18.918;2023-07-31T07:35:55;3.42;;;2.40;;
82248;SDS011;71851;49.092;18.918;2023-07-31T07:39:00;4.28;;;2.58;;
82248;SDS011;71851;49.092;18.918;2023-07-31T07:42:01;4.18;;;3.13;;
82248;SDS011;71851;49.092;18.918;2023-07-31T07:45:01;9.45;;;6.88;;
82248;SDS011;71851;49.092;18.918;2023-07-31T07:48:03;5.10;;;2.97;;
82248;SDS011;71851;49.092;18.918;2023-07-31T07:51:03;3.92;;;2.83;;
82248;SDS011;71851;49.092;18.918;2023-07-31T07:54:04;2.83;;;2.63;;
82248;SDS011;71851;49.092;18.918;2023-07-31T07:57:04;4.07;;;2.95;;
82248;SDS011;71851;49.092;18.918;2023-07-31T08:00:05;3.70;;;3.33;;
82248;SDS011;71851;49.092;18.918;2023-07-31T08:03:14;3.45;;;2.83;;
82248;SDS011;71851;49.092;18.918;2023-07-31T08:06:14;4.30;;;2.63;;
82248;SDS011;71851;49.092;18.918;2023-07-31T08:09:15;4.15;;;3.65;;
82248;SDS011;71851;49.092;18.918;2023-07-31T08:12:15;4.18;;;3.63;;
82248;SDS011;71851;49.092;18.918;2023-07-31T08:15:16;5.82;;;3.35;;
82248;SDS011;71851;49.092;18.918;2023-07-31T08:18:16;7.75;;;3.50;;
82248;SDS011;71851;49.092;18.918;2023-07-31T08:21:17;2.92;;;2.72;;
82248;SDS011;71851;49.092;18.918;2023-07-31T08:24:18;4.68;;;2.92;;
82248;SDS011;71851;49.092;18.918;2023-07-31T08:27:18;3.63;;;3.08;;
82248;SDS011;71851;49.092;18.918;2023-07-31T08:30:19;4.28;;;2.60;;
82248;SDS011;71851;49.092;18.918;2023-07-31T08:33:19;4.15;;;3.75;;
82248;SDS011;71851;49.092;18.918;2023-07-31T08:36:20;5.55;;;2.95;;
82248;SDS011;71851;49.092;18.918;2023-07-31T08:39:20;3.95;;;3.35;;
82248;SDS011;71851;49.092;18.918;2023-07-31T08:42:21;6.38;;;5.38;;
82248;SDS011;71851;49.092;18.918;2023-07-31T08:45:22;4.47;;;4.07;;
82248;SDS011;71851;49.092;18.918;2023-07-31T08:48:22;5.35;;;4.38;;
82248;SDS011;71851;49.092;18.918;2023-07-31T08:51:24;4.97;;;4.43;;
82248;SDS011;71851;49.092;18.918;2023-07-31T08:54:24;4.57;;;2.80;;
82248;SDS011;71851;49.092;18.918;2023-07-31T08:57:29;4.10;;;3.53;;
82248;SDS011;71851;49.092;18.918;2023-07-31T09:00:31;6.15;;;4.68;;
82248;SDS011;71851;49.092;18.918;2023-07-31T09:03:33;4.43;;;4.05;;
82248;SDS011;71851;49.092;18.918;2023-07-31T09:06:35;5.38;;;4.45;;
82248;SDS011;71851;49.092;18.918;2023-07-31T09:09:37;4.88;;;4.57;;
82248;SDS011;71851;49.092;18.918;2023-07-31T09:12:38;4.60;;;4.00;;
82248;SDS011;71851;49.092;18.918;2023-07-31T09:15:39;4.65;;;4.25;;
82248;SDS011;71851;49.092;18.918;2023-07-31T09:18:53;3.58;;;3.38;;
82248;SDS011;71851;49.092;18.918;2023-07-31T09:21:56;4.88;;;4.32;;
82248;SDS011;71851;49.092;18.918;2023-07-31T09:28:05;5.88;;;3.90;;
82248;SDS011;71851;49.092;18.918;2023-07-31T09:31:07;4.53;;;4.00;;
82248;SDS011;71851;49.092;18.918;2023-07-31T09:37:08;4.40;;;4.00;;
82248;SDS011;71851;49.092;18.918;2023-07-31T09:43:10;4.43;;;4.03;;
82248;SDS011;71851;49.092;18.918;2023-07-31T09:46:14;5.03;;;4.63;;
82248;SDS011;71851;49.092;18.918;2023-07-31T09:49:14;5.28;;;4.88;;
82248;SDS011;71851;49.092;18.918;2023-07-31T09:55:15;3.58;;;3.38;;
82248;SDS011;71851;49.092;18.918;2023-07-31T10:01:16;4.05;;;3.65;;
82248;SDS011;71851;49.092;18.918;2023-07-31T10:07:20;4.90;;;4.45;;
82248;SDS011;71851;49.092;18.918;2023-07-31T10:10:25;6.47;;;3.97;;
82248;SDS011;71851;49.092;18.918;2023-07-31T10:13:27;4.38;;;4.07;;
82248;SDS011;71851;49.092;18.918;2023-07-31T10:16:29;4.30;;;4.00;;
82248;SDS011;71851;49.092;18.918;2023-07-31T10:19:30;3.72;;;3.42;;
82248;SDS011;71851;49.092;18.918;2023-07-31T10:22:32;3.78;;;3.47;;
82248;SDS011;71851;49.092;18.918;2023-07-31T10:25:33;4.05;;;3.80;;
82248;SDS011;71851;49.092;18.918;2023-07-31T10:28:35;4.15;;;3.75;;
82248;SDS011;71851;49.092;18.918;2023-07-31T10:31:37;4.10;;;3.40;;
82248;SDS011;71851;49.092;18.918;2023-07-31T10:34:38;4.13;;;3.80;;
82248;SDS011;71851;49.092;18.918;2023-07-31T10:37:41;3.60;;;3.40;;
82248;SDS011;71851;49.092;18.918;2023-07-31T10:40:42;3.97;;;3.67;;
82248;SDS011;71851;49.092;18.918;2023-07-31T10:43:47;4.05;;;3.75;;
82248;SDS011;71851;49.092;18.918;2023-07-31T10:46:48;4.00;;;3.63;;
82248;SDS011;71851;49.092;18.918;2023-07-31T10:52:49;4.88;;;4.15;;
82248;SDS011;71851;49.092;18.918;2023-07-31T10:55:51;2.78;;;2.33;;
82248;SDS011;71851;49.092;18.918;2023-07-31T11:02:00;3.10;;;2.78;;
82248;SDS011;71851;49.092;18.918;2023-07-31T11:05:06;3.30;;;2.65;;
82248;SDS011;71851;49.092;18.918;2023-07-31T11:08:18;4.32;;;3.63;;
82248;SDS011;71851;49.092;18.918;2023-07-31T11:11:20;3.53;;;3.22;;
82248;SDS011;71851;49.092;18.918;2023-07-31T11:17:24;4.23;;;3.10;;
82248;SDS011;71851;49.092;18.918;2023-07-31T11:20:26;2.83;;;2.50;;
82248;SDS011;71851;49.092;18.918;2023-07-31T11:23:27;3.80;;;2.17;;
82248;SDS011;71851;49.092;18.918;2023-07-31T11:29:28;3.40;;;2.20;;
82248;SDS011;71851;49.092;18.918;2023-07-31T11:35:33;2.28;;;2.08;;
82248;SDS011;71851;49.092;18.918;2023-07-31T11:38:34;2.67;;;2.40;;
82248;SDS011;71851;49.092;18.918;2023-07-31T11:41:35;2.45;;;2.25;;
82248;SDS011;71851;49.092;18.918;2023-07-31T11:44:39;4.05;;;2.15;;
82248;SDS011;71851;49.092;18.918;2023-07-31T11:47:41;4.00;;;2.08;;
82248;SDS011;71851;49.092;18.918;2023-07-31T11:50:41;3.58;;;1.63;;
82248;SDS011;71851;49.092;18.918;2023-07-31T11:56:52;2.47;;;1.60;;
82248;SDS011;71851;49.092;18.918;2023-07-31T11:59:53;4.18;;;2.17;;
82248;SDS011;71851;49.092;18.918;2023-07-31T12:05:54;3.08;;;2.78;;
82248;SDS011;71851;49.092;18.918;2023-07-31T12:09:00;2.95;;;2.45;;
82248;SDS011;71851;49.092;18.918;2023-07-31T12:12:07;2.83;;;2.00;;
82248;SDS011;71851;49.092;18.918;2023-07-31T12:15:15;4.65;;;1.95;;
82248;SDS011;71851;49.092;18.918;2023-07-31T12:18:18;3.22;;;1.70;;
82248;SDS011;71851;49.092;18.918;2023-07-31T12:21:21;3.95;;;2.00;;
82248;SDS011;71851;49.092;18.918;2023-07-31T12:24:22;2.60;;;1.85;;
82248;SDS011;71851;49.092;18.918;2023-07-31T12:27:22;3.33;;;2.17;;
82248;SDS011;71851;49.092;18.918;2023-07-31T12:30:32;3.05;;;2.20;;
82248;SDS011;71851;49.092;18.918;2023-07-31T12:33:35;5.15;;;1.80;;
82248;SDS011;71851;49.092;18.918;2023-07-31T12:36:37;2.08;;;1.63;;
82248;SDS011;71851;49.092;18.918;2023-07-31T12:39:39;2.53;;;1.95;;
82248;SDS011;71851;49.092;18.918;2023-07-31T12:42:40;2.38;;;2.00;;
82248;SDS011;71851;49.092;18.918;2023-07-31T12:45:41;2.85;;;1.88;;
82248;SDS011;71851;49.092;18.918;2023-07-31T12:48:42;4.45;;;1.65;;
82248;SDS011;71851;49.092;18.918;2023-07-31T12:51:42;2.13;;;1.67;;
82248;SDS011;71851;49.092;18.918;2023-07-31T12:54:43;3.83;;;1.98;;
82248;SDS011;71851;49.092;18.918;2023-07-31T12:57:43;5.97;;;2.67;;
82248;SDS011;71851;49.092;18.918;2023-07-31T13:00:44;3.38;;;2.03;;
82248;SDS011;71851;49.092;18.918;2023-07-31T13:03:44;2.85;;;2.00;;
82248;SDS011;71851;49.092;18.918;2023-07-31T13:06:45;2.42;;;1.77;;
82248;SDS011;71851;49.092;18.918;2023-07-31T13:09:45;4.32;;;1.80;;
82248;SDS011;71851;49.092;18.918;2023-07-31T13:12:46;3.30;;;2.20;;
82248;SDS011;71851;49.092;18.918;2023-07-31T13:15:46;3.65;;;2.50;;
82248;SDS011;71851;49.092;18.918;2023-07-31T13:18:47;2.70;;;2.10;;
82248;SDS011;71851;49.092;18.918;2023-07-31T13:21:47;2.50;;;1.60;;
82248;SDS011;71851;49.092;18.918;2023-07-31T13:24:47;2.97;;;1.65;;
82248;SDS011;71851;49.092;18.918;2023-07-31T13:27:48;2.25;;;1.17;;
82248;SDS011;71851;49.092;18.918;2023-07-31T13:30:48;2.65;;;1.60;;
82248;SDS011;71851;49.092;18.918;2023-07-31T13:33:49;2.00;;;1.40;;
82248;SDS011;71851;49.092;18.918;2023-07-31T13:36:49;3.25;;;1.55;;
82248;SDS011;71851;49.092;18.918;2023-07-31T13:39:49;2.97;;;1.80;;
82248;SDS011;71851;49.092;18.918;2023-07-31T13:42:50;7.03;;;1.70;;
82248;SDS011;71851;49.092;18.918;2023-07-31T13:45:50;4.65;;;1.67;;
82248;SDS011;71851;49.092;18.918;2023-07-31T13:48:51;2.75;;;1.60;;
82248;SDS011;71851;49.092;18.918;2023-07-31T13:51:54;4.35;;;1.67;;
82248;SDS011;71851;49.092;18.918;2023-07-31T13:54:55;4.57;;;1.98;;
82248;SDS011;71851;49.092;18.918;2023-07-31T13:57:55;3.22;;;2.20;;
82248;SDS011;71851;49.092;18.918;2023-07-31T14:00:56;1.90;;;1.63;;
82248;SDS011;71851;49.092;18.918;2023-07-31T14:03:56;3.00;;;1.27;;
82248;SDS011;71851;49.092;18.918;2023-07-31T14:06:57;2.17;;;1.33;;
82248;SDS011;71851;49.092;18.918;2023-07-31T14:09:57;2.95;;;2.17;;
82248;SDS011;71851;49.092;18.918;2023-07-31T14:12:58;3.25;;;1.92;;
82248;SDS011;71851;49.092;18.918;2023-07-31T14:15:58;2.20;;;1.48;;
82248;SDS011;71851;49.092;18.918;2023-07-31T14:18:59;2.45;;;1.88;;
82248;SDS011;71851;49.092;18.918;2023-07-31T14:21:59;2.35;;;1.60;;
82248;SDS011;71851;49.092;18.918;2023-07-31T14:25:00;2.55;;;1.60;;
82248;SDS011;71851;49.092;18.918;2023-07-31T14:28:01;4.47;;;1.50;;
82248;SDS011;71851;49.092;18.918;2023-07-31T14:31:01;2.92;;;1.38;;
82248;SDS011;71851;49.092;18.918;2023-07-31T14:34:01;2.70;;;1.77;;
82248;SDS011;71851;49.092;18.918;2023-07-31T14:37:02;2.55;;;1.50;;
82248;SDS011;71851;49.092;18.918;2023-07-31T14:40:03;5.57;;;1.55;;
82248;SDS011;71851;49.092;18.918;2023-07-31T14:43:04;3.22;;;1.30;;
82248;SDS011;71851;49.092;18.918;2023-07-31T14:46:05;3.83;;;1.50;;
82248;SDS011;71851;49.092;18.918;2023-07-31T14:49:05;2.53;;;1.33;;
82248;SDS011;71851;49.092;18.918;2023-07-31T14:52:06;3.17;;;1.70;;
82248;SDS011;71851;49.092;18.918;2023-07-31T14:58:08;1.98;;;1.00;;
82248;SDS011;71851;49.092;18.918;2023-07-31T15:01:11;2.80;;;2.03;;
82248;SDS011;71851;49.092;18.918;2023-07-31T15:04:11;2.33;;;0.98;;
82248;SDS011;71851;49.092;18.918;2023-07-31T15:07:12;2.25;;;1.35;;
82248;SDS011;71851;49.092;18.918;2023-07-31T15:10:13;1.75;;;1.30;;
82248;SDS011;71851;49.092;18.918;2023-07-31T15:13:14;2.45;;;1.35;;
82248;SDS011;71851;49.092;18.918;2023-07-31T15:16:14;2.35;;;1.45;;
82248;SDS011;71851;49.092;18.918;2023-07-31T15:19:15;2.30;;;1.42;;
82248;SDS011;71851;49.092;18.918;2023-07-31T15:22:15;1.92;;;1.13;;
82248;SDS011;71851;49.092;18.918;2023-07-31T15:25:16;1.77;;;1.00;;
82248;SDS011;71851;49.092;18.918;2023-07-31T15:28:16;2.05;;;1.27;;
82248;SDS011;71851;49.092;18.918;2023-07-31T15:31:18;3.35;;;1.20;;
82248;SDS011;71851;49.092;18.918;2023-07-31T15:34:18;2.85;;;1.20;;
82248;SDS011;71851;49.092;18.918;2023-07-31T15:37:19;2.08;;;1.20;;
82248;SDS011;71851;49.092;18.918;2023-07-31T15:40:19;2.47;;;1.52;;
82248;SDS011;71851;49.092;18.918;2023-07-31T15:43:20;2.45;;;1.63;;
82248;SDS011;71851;49.092;18.918;2023-07-31T15:46:21;3.67;;;1.50;;
82248;SDS011;71851;49.092;18.918;2023-07-31T15:49:21;3.67;;;1.40;;
82248;SDS011;71851;49.092;18.918;2023-07-31T15:52:22;2.35;;;1.42;;
82248;SDS011;71851;49.092;18.918;2023-07-31T15:55:22;4.13;;;1.73;;
82248;SDS011;71851;49.092;18.918;2023-07-31T15:58:24;2.97;;;1.45;;
82248;SDS011;71851;49.092;18.918;2023-07-31T16:01:25;2.70;;;1.83;;
82248;SDS011;71851;49.092;18.918;2023-07-31T16:04:26;3.88;;;1.80;;
82248;SDS011;71851;49.092;18.918;2023-07-31T16:07:26;3.88;;;1.80;;
82248;SDS011;71851;49.092;18.918;2023-07-31T16:10:27;1.45;;;1.27;;
82248;SDS011;71851;49.092;18.918;2023-07-31T16:13:28;1.98;;;1.00;;
82248;SDS011;71851;49.092;18.918;2023-07-31T16:16:28;2.50;;;1.30;;
82248;SDS011;71851;49.092;18.918;2023-07-31T16:19:29;2.92;;;1.50;;
82248;SDS011;71851;49.092;18.918;2023-07-31T16:22:29;2.58;;;1.42;;
82248;SDS011;71851;49.092;18.918;2023-07-31T16:25:29;1.83;;;1.17;;
82248;SDS011;71851;49.092;18.918;2023-07-31T16:28:30;3.47;;;1.10;;
82248;SDS011;71851;49.092;18.918;2023-07-31T16:31:30;3.15;;;1.83;;
82248;SDS011;71851;49.092;18.918;2023-07-31T16:34:31;3.90;;;3.17;;
82248;SDS011;71851;49.092;18.918;2023-07-31T16:37:31;3.25;;;1.70;;
82248;SDS011;71851;49.092;18.918;2023-07-31T16:40:32;1.73;;;1.55;;
82248;SDS011;71851;49.092;18.918;2023-07-31T16:43:32;2.30;;;1.10;;
82248;SDS011;71851;49.092;18.918;2023-07-31T16:46:33;1.77;;;0.93;;
82248;SDS011;71851;49.092;18.918;2023-07-31T16:49:33;3.05;;;1.52;;
82248;SDS011;71851;49.092;18.918;2023-07-31T16:52:34;3.95;;;2.15;;
82248;SDS011;71851;49.092;18.918;2023-07-31T16:55:34;2.88;;;1.80;;
82248;SDS011;71851;49.092;18.918;2023-07-31T16:58:36;3.00;;;1.30;;
82248;SDS011;71851;49.092;18.918;2023-07-31T17:01:36;7.05;;;1.42;;
82248;SDS011;71851;49.092;18.918;2023-07-31T17:04:37;4.30;;;1.30;;
82248;SDS011;71851;49.092;18.918;2023-07-31T17:07:37;2.40;;;1.17;;
82248;SDS011;71851;49.092;18.918;2023-07-31T17:10:38;4.68;;;2.95;;
82248;SDS011;71851;49.092;18.918;2023-07-31T17:13:38;2.53;;;0.98;;
82248;SDS011;71851;49.092;18.918;2023-07-31T17:16:39;3.33;;;1.50;;
82248;SDS011;71851;49.092;18.918;2023-07-31T17:19:39;1.73;;;1.13;;
82248;SDS011;71851;49.092;18.918;2023-07-31T17:22:40;3.60;;;1.30;;
82248;SDS011;71851;49.092;18.918;2023-07-31T17:25:40;2.55;;;1.48;;
82248;SDS011;71851;49.092;18.918;2023-07-31T17:28:43;2.63;;;1.08;;
82248;SDS011;71851;49.092;18.918;2023-07-31T17:31:44;2.47;;;1.13;;
82248;SDS011;71851;49.092;18.918;2023-07-31T17:34:44;4.50;;;1.83;;
82248;SDS011;71851;49.092;18.918;2023-07-31T17:37:46;4.75;;;1.85;;
82248;SDS011;71851;49.092;18.918;2023-07-31T17:40:47;2.25;;;1.40;;
82248;SDS011;71851;49.092;18.918;2023-07-31T17:43:47;1.55;;;1.20;;
82248;SDS011;71851;49.092;18.918;2023-07-31T17:46:48;1.92;;;1.00;;
82248;SDS011;71851;49.092;18.918;2023-07-31T17:49:49;3.88;;;1.33;;
82248;SDS011;71851;49.092;18.918;2023-07-31T17:52:50;2.78;;;1.30;;
82248;SDS011;71851;49.092;18.918;2023-07-31T17:55:50;2.08;;;0.93;;
82248;SDS011;71851;49.092;18.918;2023-07-31T17:58:50;2.88;;;1.00;;
82248;SDS011;71851;49.092;18.918;2023-07-31T18:01:51;2.08;;;1.00;;
82248;SDS011;71851;49.092;18.918;2023-07-31T18:04:51;2.67;;;1.27;;
82248;SDS011;71851;49.092;18.918;2023-07-31T18:07:52;3.60;;;1.60;;
82248;SDS011;71851;49.092;18.918;2023-07-31T18:10:52;2.53;;;1.25;;
82248;SDS011;71851;49.092;18.918;2023-07-31T18:13:53;2.85;;;1.13;;
82248;SDS011;71851;49.092;18.918;2023-07-31T18:16:53;4.10;;;1.50;;
82248;SDS011;71851;49.092;18.918;2023-07-31T18:19:54;2.03;;;1.20;;
82248;SDS011;71851;49.092;18.918;2023-07-31T18:22:55;4.50;;;1.45;;
82248;SDS011;71851;49.092;18.918;2023-07-31T18:25:55;2.58;;;1.48;;
82248;SDS011;71851;49.092;18.918;2023-07-31T18:28:55;1.77;;;1.08;;
82248;SDS011;71851;49.092;18.918;2023-07-31T18:31:56;2.20;;;1.15;;
82248;SDS011;71851;49.092;18.918;2023-07-31T18:34:58;3.47;;;1.20;;
82248;SDS011;71851;49.092;18.918;2023-07-31T18:37:58;2.58;;;1.13;;
82248;SDS011;71851;49.092;18.918;2023-07-31T18:40:59;1.90;;;1.02;;